sensor_id;sensor_type;location;lat;lon;timestamp;P1;durP1;ratioP1;P2;durP2;ratioP2
75550;SDS011;65071;53.082;18.218;2023-04-25T00:01:48;3.60;;;2.50;;
75550;SDS011;65071;53.082;18.218;2023-04-25T00:04:15;3.20;;;2.50;;
75550;SDS011;65071;53.082;18.218;2023-04-25T00:06:41;3.10;;;2.70;;
75550;SDS011;65071;53.082;18.218;2023-04-25T00:09:08;4.00;;;3.00;;
75550;SDS011;65071;53.082;18.218;2023-04-25T00:11:36;5.80;;;3.20;;
75550;SDS011;65071;53.082;18.218;2023-04-25T00:14:04;5.10;;;3.10;;
75550;SDS011;65071;53.082;18.218;2023-04-25T00:16:30;5.40;;;3.30;;
75550;SDS011;65071;53.082;18.218;2023-04-25T00:19:00;5.40;;;3.30;;
75550;SDS011;65071;53.082;18.218;2023-04-25T00:21:29;4.30;;;3.30;;
75550;SDS011;65071;53.082;18.218;2023-04-25T00:23:58;5.20;;;3.80;;
75550;SDS011;65071;53.082;18.218;2023-04-25T00:26:25;3.90;;;3.30;;
75550;SDS011;65071;53.082;18.218;2023-04-25T00:28:51;4.00;;;2.90;;
75550;SDS011;65071;53.082;18.218;2023-04-25T00:31:18;4.50;;;3.00;;
75550;SDS011;65071;53.082;18.218;2023-04-25T00:33:44;4.80;;;3.30;;
75550;SDS011;65071;53.082;18.218;2023-04-25T00:36:11;3.70;;;3.20;;
75550;SDS011;65071;53.082;18.218;2023-04-25T00:38:38;4.20;;;3.40;;
75550;SDS011;65071;53.082;18.218;2023-04-25T00:41:05;4.40;;;3.70;;
75550;SDS011;65071;53.082;18.218;2023-04-25T00:43:33;4.10;;;3.30;;
75550;SDS011;65071;53.082;18.218;2023-04-25T00:46:02;4.30;;;3.00;;
75550;SDS011;65071;53.082;18.218;2023-04-25T00:48:29;4.50;;;3.40;;
75550;SDS011;65071;53.082;18.218;2023-04-25T00:50:57;4.40;;;2.70;;
75550;SDS011;65071;53.082;18.218;2023-04-25T00:53:24;3.60;;;2.60;;
75550;SDS011;65071;53.082;18.218;2023-04-25T00:55:52;5.30;;;2.70;;
75550;SDS011;65071;53.082;18.218;2023-04-25T00:58:20;4.00;;;2.60;;
75550;SDS011;65071;53.082;18.218;2023-04-25T01:00:48;3.00;;;2.30;;
75550;SDS011;65071;53.082;18.218;2023-04-25T01:03:16;3.30;;;2.30;;
75550;SDS011;65071;53.082;18.218;2023-04-25T01:08:13;2.60;;;2.10;;
75550;SDS011;65071;53.082;18.218;2023-04-25T01:10:40;4.10;;;2.60;;
75550;SDS011;65071;53.082;18.218;2023-04-25T01:13:08;3.60;;;2.60;;
75550;SDS011;65071;53.082;18.218;2023-04-25T01:15:35;2.50;;;2.30;;
75550;SDS011;65071;53.082;18.218;2023-04-25T01:18:02;3.30;;;2.60;;
75550;SDS011;65071;53.082;18.218;2023-04-25T01:20:32;3.70;;;2.40;;
75550;SDS011;65071;53.082;18.218;2023-04-25T01:23:00;3.00;;;2.10;;
75550;SDS011;65071;53.082;18.218;2023-04-25T01:25:29;2.70;;;2.00;;
75550;SDS011;65071;53.082;18.218;2023-04-25T01:27:57;2.40;;;1.70;;
75550;SDS011;65071;53.082;18.218;2023-04-25T01:30:28;3.70;;;2.20;;
75550;SDS011;65071;53.082;18.218;2023-04-25T01:32:55;4.10;;;2.40;;
75550;SDS011;65071;53.082;18.218;2023-04-25T01:35:23;3.10;;;2.40;;
75550;SDS011;65071;53.082;18.218;2023-04-25T01:37:53;3.00;;;2.30;;
75550;SDS011;65071;53.082;18.218;2023-04-25T01:40:20;3.00;;;2.10;;
75550;SDS011;65071;53.082;18.218;2023-04-25T01:42:47;4.00;;;2.60;;
75550;SDS011;65071;53.082;18.218;2023-04-25T01:45:14;2.40;;;1.80;;
75550;SDS011;65071;53.082;18.218;2023-04-25T01:47:40;2.40;;;1.80;;
75550;SDS011;65071;53.082;18.218;2023-04-25T01:50:09;2.60;;;2.20;;
75550;SDS011;65071;53.082;18.218;2023-04-25T01:52:37;2.70;;;2.10;;
75550;SDS011;65071;53.082;18.218;2023-04-25T01:55:05;2.40;;;2.00;;
75550;SDS011;65071;53.082;18.218;2023-04-25T01:57:34;3.60;;;2.50;;
75550;SDS011;65071;53.082;18.218;2023-04-25T02:00:03;3.20;;;2.40;;
75550;SDS011;65071;53.082;18.218;2023-04-25T02:02:40;3.10;;;2.30;;
75550;SDS011;65071;53.082;18.218;2023-04-25T02:05:16;3.70;;;2.20;;
75550;SDS011;65071;53.082;18.218;2023-04-25T02:07:43;2.90;;;2.60;;
75550;SDS011;65071;53.082;18.218;2023-04-25T02:10:10;3.90;;;2.20;;
75550;SDS011;65071;53.082;18.218;2023-04-25T02:12:44;2.80;;;2.30;;
75550;SDS011;65071;53.082;18.218;2023-04-25T02:15:11;3.10;;;2.40;;
75550;SDS011;65071;53.082;18.218;2023-04-25T02:17:42;3.00;;;2.10;;
75550;SDS011;65071;53.082;18.218;2023-04-25T02:20:09;2.00;;;1.80;;
75550;SDS011;65071;53.082;18.218;2023-04-25T02:22:36;2.90;;;2.20;;
75550;SDS011;65071;53.082;18.218;2023-04-25T02:25:05;2.80;;;1.90;;
75550;SDS011;65071;53.082;18.218;2023-04-25T02:27:32;2.60;;;1.90;;
75550;SDS011;65071;53.082;18.218;2023-04-25T02:29:59;3.50;;;2.30;;
75550;SDS011;65071;53.082;18.218;2023-04-25T02:32:25;2.30;;;2.00;;
75550;SDS011;65071;53.082;18.218;2023-04-25T02:34:53;2.20;;;1.90;;
75550;SDS011;65071;53.082;18.218;2023-04-25T02:37:20;3.20;;;1.70;;
75550;SDS011;65071;53.082;18.218;2023-04-25T02:39:46;2.60;;;1.90;;
75550;SDS011;65071;53.082;18.218;2023-04-25T02:42:13;3.30;;;1.80;;
75550;SDS011;65071;53.082;18.218;2023-04-25T02:44:39;2.80;;;2.00;;
75550;SDS011;65071;53.082;18.218;2023-04-25T02:47:06;1.70;;;1.60;;
75550;SDS011;65071;53.082;18.218;2023-04-25T02:49:32;2.60;;;1.80;;
75550;SDS011;65071;53.082;18.218;2023-04-25T02:51:59;1.60;;;1.30;;
75550;SDS011;65071;53.082;18.218;2023-04-25T02:54:26;3.40;;;1.60;;
75550;SDS011;65071;53.082;18.218;2023-04-25T02:56:52;3.30;;;1.80;;
75550;SDS011;65071;53.082;18.218;2023-04-25T02:59:23;2.50;;;1.90;;
75550;SDS011;65071;53.082;18.218;2023-04-25T03:01:50;1.60;;;1.10;;
75550;SDS011;65071;53.082;18.218;2023-04-25T03:04:16;1.40;;;1.20;;
75550;SDS011;65071;53.082;18.218;2023-04-25T03:06:45;1.70;;;1.40;;
75550;SDS011;65071;53.082;18.218;2023-04-25T03:09:11;2.10;;;1.60;;
75550;SDS011;65071;53.082;18.218;2023-04-25T03:11:38;2.30;;;1.30;;
75550;SDS011;65071;53.082;18.218;2023-04-25T03:14:05;1.20;;;1.00;;
75550;SDS011;65071;53.082;18.218;2023-04-25T03:16:31;1.80;;;1.10;;
75550;SDS011;65071;53.082;18.218;2023-04-25T03:18:58;1.60;;;1.20;;
75550;SDS011;65071;53.082;18.218;2023-04-25T03:21:26;2.40;;;1.60;;
75550;SDS011;65071;53.082;18.218;2023-04-25T03:23:52;1.60;;;0.90;;
75550;SDS011;65071;53.082;18.218;2023-04-25T03:26:19;5.20;;;1.90;;
75550;SDS011;65071;53.082;18.218;2023-04-25T03:28:46;1.30;;;1.20;;
75550;SDS011;65071;53.082;18.218;2023-04-25T03:31:12;1.90;;;1.30;;
75550;SDS011;65071;53.082;18.218;2023-04-25T03:33:39;1.80;;;1.20;;
75550;SDS011;65071;53.082;18.218;2023-04-25T03:36:06;1.20;;;0.90;;
75550;SDS011;65071;53.082;18.218;2023-04-25T03:38:33;1.20;;;0.90;;
75550;SDS011;65071;53.082;18.218;2023-04-25T03:41:00;1.90;;;1.20;;
75550;SDS011;65071;53.082;18.218;2023-04-25T03:43:45;2.20;;;1.00;;
75550;SDS011;65071;53.082;18.218;2023-04-25T03:46:13;1.40;;;1.00;;
75550;SDS011;65071;53.082;18.218;2023-04-25T03:48:39;1.40;;;1.00;;
75550;SDS011;65071;53.082;18.218;2023-04-25T03:51:06;1.70;;;1.30;;
75550;SDS011;65071;53.082;18.218;2023-04-25T03:53:33;1.70;;;1.20;;
75550;SDS011;65071;53.082;18.218;2023-04-25T03:56:20;1.40;;;1.00;;
75550;SDS011;65071;53.082;18.218;2023-04-25T03:58:48;1.40;;;1.20;;
75550;SDS011;65071;53.082;18.218;2023-04-25T04:01:16;1.90;;;1.20;;
75550;SDS011;65071;53.082;18.218;2023-04-25T04:03:42;1.00;;;0.90;;
75550;SDS011;65071;53.082;18.218;2023-04-25T04:06:09;1.00;;;0.90;;
75550;SDS011;65071;53.082;18.218;2023-04-25T04:08:40;1.30;;;1.00;;
75550;SDS011;65071;53.082;18.218;2023-04-25T04:11:07;1.20;;;1.00;;
75550;SDS011;65071;53.082;18.218;2023-04-25T04:13:33;2.90;;;1.00;;
75550;SDS011;65071;53.082;18.218;2023-04-25T04:16:01;2.90;;;0.90;;
75550;SDS011;65071;53.082;18.218;2023-04-25T04:18:27;0.70;;;0.70;;
75550;SDS011;65071;53.082;18.218;2023-04-25T04:20:56;1.20;;;1.10;;
75550;SDS011;65071;53.082;18.218;2023-04-25T04:23:24;1.00;;;0.90;;
75550;SDS011;65071;53.082;18.218;2023-04-25T04:25:51;2.50;;;1.10;;
75550;SDS011;65071;53.082;18.218;2023-04-25T04:28:18;2.10;;;1.20;;
75550;SDS011;65071;53.082;18.218;2023-04-25T04:30:51;1.50;;;1.00;;
75550;SDS011;65071;53.082;18.218;2023-04-25T04:33:18;0.90;;;0.80;;
75550;SDS011;65071;53.082;18.218;2023-04-25T04:35:46;0.80;;;0.70;;
75550;SDS011;65071;53.082;18.218;2023-04-25T04:38:13;1.20;;;0.70;;
75550;SDS011;65071;53.082;18.218;2023-04-25T04:40:41;1.90;;;0.80;;
75550;SDS011;65071;53.082;18.218;2023-04-25T04:43:16;0.70;;;0.70;;
75550;SDS011;65071;53.082;18.218;2023-04-25T04:46:03;1.20;;;0.90;;
75550;SDS011;65071;53.082;18.218;2023-04-25T04:48:35;0.70;;;0.60;;
75550;SDS011;65071;53.082;18.218;2023-04-25T04:51:20;0.90;;;0.80;;
75550;SDS011;65071;53.082;18.218;2023-04-25T04:54:25;3.90;;;1.30;;
75550;SDS011;65071;53.082;18.218;2023-04-25T04:57:01;1.40;;;1.00;;
75550;SDS011;65071;53.082;18.218;2023-04-25T05:00:03;0.70;;;0.40;;
75550;SDS011;65071;53.082;18.218;2023-04-25T05:03:08;0.80;;;0.80;;
75550;SDS011;65071;53.082;18.218;2023-04-25T05:05:41;1.30;;;1.00;;
75550;SDS011;65071;53.082;18.218;2023-04-25T05:08:30;0.80;;;0.70;;
75550;SDS011;65071;53.082;18.218;2023-04-25T05:11:13;0.80;;;0.80;;
75550;SDS011;65071;53.082;18.218;2023-04-25T05:13:52;1.20;;;0.90;;
75550;SDS011;65071;53.082;18.218;2023-04-25T05:19:32;2.10;;;0.80;;
75550;SDS011;65071;53.082;18.218;2023-04-25T05:22:17;1.00;;;0.90;;
75550;SDS011;65071;53.082;18.218;2023-04-25T05:24:55;1.00;;;0.70;;
75550;SDS011;65071;53.082;18.218;2023-04-25T05:27:51;1.70;;;1.00;;
75550;SDS011;65071;53.082;18.218;2023-04-25T05:30:44;0.70;;;0.60;;
75550;SDS011;65071;53.082;18.218;2023-04-25T05:33:26;2.10;;;1.00;;
75550;SDS011;65071;53.082;18.218;2023-04-25T05:35:53;1.10;;;0.90;;
75550;SDS011;65071;53.082;18.218;2023-04-25T05:38:20;1.40;;;0.90;;
75550;SDS011;65071;53.082;18.218;2023-04-25T05:41:15;1.30;;;1.00;;
75550;SDS011;65071;53.082;18.218;2023-04-25T05:43:59;1.70;;;0.80;;
75550;SDS011;65071;53.082;18.218;2023-04-25T05:46:34;1.10;;;0.80;;
75550;SDS011;65071;53.082;18.218;2023-04-25T05:49:19;2.40;;;1.10;;
75550;SDS011;65071;53.082;18.218;2023-04-25T05:52:04;1.00;;;0.90;;
75550;SDS011;65071;53.082;18.218;2023-04-25T05:54:31;1.20;;;0.70;;
75550;SDS011;65071;53.082;18.218;2023-04-25T05:56:57;1.60;;;1.00;;
75550;SDS011;65071;53.082;18.218;2023-04-25T05:59:24;2.40;;;1.10;;
75550;SDS011;65071;53.082;18.218;2023-04-25T06:01:51;2.90;;;1.30;;
75550;SDS011;65071;53.082;18.218;2023-04-25T06:04:18;1.40;;;1.20;;
75550;SDS011;65071;53.082;18.218;2023-04-25T06:06:45;2.00;;;1.20;;
75550;SDS011;65071;53.082;18.218;2023-04-25T06:09:11;2.60;;;1.00;;
75550;SDS011;65071;53.082;18.218;2023-04-25T06:11:38;1.10;;;0.90;;
75550;SDS011;65071;53.082;18.218;2023-04-25T06:14:05;1.00;;;0.80;;
75550;SDS011;65071;53.082;18.218;2023-04-25T06:16:33;3.30;;;1.40;;
75550;SDS011;65071;53.082;18.218;2023-04-25T06:18:59;2.30;;;1.20;;
75550;SDS011;65071;53.082;18.218;2023-04-25T06:21:26;1.20;;;1.00;;
75550;SDS011;65071;53.082;18.218;2023-04-25T06:23:53;2.40;;;1.10;;
75550;SDS011;65071;53.082;18.218;2023-04-25T06:26:23;1.80;;;1.10;;
75550;SDS011;65071;53.082;18.218;2023-04-25T06:28:50;5.30;;;1.50;;
75550;SDS011;65071;53.082;18.218;2023-04-25T06:31:16;1.10;;;0.90;;
75550;SDS011;65071;53.082;18.218;2023-04-25T06:33:43;3.50;;;1.50;;
75550;SDS011;65071;53.082;18.218;2023-04-25T06:36:10;1.70;;;1.20;;
75550;SDS011;65071;53.082;18.218;2023-04-25T06:38:36;1.50;;;1.20;;
75550;SDS011;65071;53.082;18.218;2023-04-25T06:41:03;3.00;;;1.10;;
75550;SDS011;65071;53.082;18.218;2023-04-25T06:43:31;2.40;;;1.10;;
75550;SDS011;65071;53.082;18.218;2023-04-25T06:46:16;2.40;;;1.50;;
75550;SDS011;65071;53.082;18.218;2023-04-25T06:48:44;1.90;;;1.30;;
75550;SDS011;65071;53.082;18.218;2023-04-25T06:51:11;1.80;;;1.40;;
75550;SDS011;65071;53.082;18.218;2023-04-25T06:53:40;3.60;;;1.60;;
75550;SDS011;65071;53.082;18.218;2023-04-25T06:56:07;2.60;;;1.30;;
75550;SDS011;65071;53.082;18.218;2023-04-25T06:58:43;2.40;;;1.20;;
75550;SDS011;65071;53.082;18.218;2023-04-25T07:01:15;1.70;;;1.10;;
75550;SDS011;65071;53.082;18.218;2023-04-25T07:03:41;1.50;;;1.40;;
75550;SDS011;65071;53.082;18.218;2023-04-25T07:06:12;1.80;;;1.40;;
75550;SDS011;65071;53.082;18.218;2023-04-25T07:08:39;1.80;;;1.50;;
75550;SDS011;65071;53.082;18.218;2023-04-25T07:11:06;2.10;;;1.00;;
75550;SDS011;65071;53.082;18.218;2023-04-25T07:13:32;1.60;;;1.10;;
75550;SDS011;65071;53.082;18.218;2023-04-25T07:15:59;1.90;;;1.20;;
75550;SDS011;65071;53.082;18.218;2023-04-25T07:18:27;1.80;;;1.30;;
75550;SDS011;65071;53.082;18.218;2023-04-25T07:20:54;3.00;;;1.10;;
75550;SDS011;65071;53.082;18.218;2023-04-25T07:23:21;1.90;;;1.30;;
75550;SDS011;65071;53.082;18.218;2023-04-25T07:25:47;2.10;;;1.50;;
75550;SDS011;65071;53.082;18.218;2023-04-25T07:28:16;1.60;;;1.20;;
75550;SDS011;65071;53.082;18.218;2023-04-25T07:30:42;1.90;;;1.40;;
75550;SDS011;65071;53.082;18.218;2023-04-25T07:35:45;1.60;;;1.20;;
75550;SDS011;65071;53.082;18.218;2023-04-25T07:38:12;1.00;;;0.90;;
75550;SDS011;65071;53.082;18.218;2023-04-25T07:40:39;1.50;;;1.10;;
75550;SDS011;65071;53.082;18.218;2023-04-25T07:43:07;3.00;;;1.10;;
75550;SDS011;65071;53.082;18.218;2023-04-25T07:45:39;2.60;;;1.30;;
75550;SDS011;65071;53.082;18.218;2023-04-25T07:48:06;4.40;;;1.50;;
75550;SDS011;65071;53.082;18.218;2023-04-25T07:50:35;2.30;;;1.20;;
75550;SDS011;65071;53.082;18.218;2023-04-25T07:53:02;4.10;;;1.00;;
75550;SDS011;65071;53.082;18.218;2023-04-25T07:55:32;1.50;;;0.90;;
75550;SDS011;65071;53.082;18.218;2023-04-25T07:58:07;1.90;;;1.10;;
75550;SDS011;65071;53.082;18.218;2023-04-25T08:00:34;1.50;;;1.10;;
75550;SDS011;65071;53.082;18.218;2023-04-25T08:03:17;1.50;;;1.10;;
75550;SDS011;65071;53.082;18.218;2023-04-25T08:05:43;2.70;;;1.10;;
75550;SDS011;65071;53.082;18.218;2023-04-25T08:08:12;2.40;;;1.50;;
75550;SDS011;65071;53.082;18.218;2023-04-25T08:10:39;2.00;;;1.30;;
75550;SDS011;65071;53.082;18.218;2023-04-25T08:13:05;1.50;;;1.20;;
75550;SDS011;65071;53.082;18.218;2023-04-25T08:15:32;2.80;;;1.20;;
75550;SDS011;65071;53.082;18.218;2023-04-25T08:17:58;2.40;;;1.10;;
75550;SDS011;65071;53.082;18.218;2023-04-25T08:20:25;1.60;;;1.10;;
75550;SDS011;65071;53.082;18.218;2023-04-25T08:22:53;2.30;;;1.00;;
75550;SDS011;65071;53.082;18.218;2023-04-25T08:25:39;1.20;;;0.80;;
75550;SDS011;65071;53.082;18.218;2023-04-25T08:28:07;2.10;;;1.10;;
75550;SDS011;65071;53.082;18.218;2023-04-25T08:30:34;0.90;;;0.80;;
75550;SDS011;65071;53.082;18.218;2023-04-25T08:33:00;1.80;;;1.40;;
75550;SDS011;65071;53.082;18.218;2023-04-25T08:35:47;3.30;;;1.50;;
75550;SDS011;65071;53.082;18.218;2023-04-25T08:38:14;2.10;;;1.30;;
75550;SDS011;65071;53.082;18.218;2023-04-25T08:40:41;2.60;;;1.30;;
75550;SDS011;65071;53.082;18.218;2023-04-25T08:43:15;4.20;;;1.60;;
75550;SDS011;65071;53.082;18.218;2023-04-25T08:45:45;3.80;;;1.70;;
75550;SDS011;65071;53.082;18.218;2023-04-25T08:48:18;1.80;;;1.60;;
75550;SDS011;65071;53.082;18.218;2023-04-25T08:50:51;1.50;;;1.10;;
75550;SDS011;65071;53.082;18.218;2023-04-25T08:53:25;1.90;;;1.40;;
75550;SDS011;65071;53.082;18.218;2023-04-25T08:55:53;3.70;;;1.30;;
75550;SDS011;65071;53.082;18.218;2023-04-25T08:58:21;2.10;;;1.50;;
75550;SDS011;65071;53.082;18.218;2023-04-25T09:00:49;2.50;;;1.60;;
75550;SDS011;65071;53.082;18.218;2023-04-25T09:03:18;3.20;;;1.70;;
75550;SDS011;65071;53.082;18.218;2023-04-25T09:05:46;2.20;;;1.50;;
75550;SDS011;65071;53.082;18.218;2023-04-25T09:08:15;2.20;;;1.70;;
75550;SDS011;65071;53.082;18.218;2023-04-25T09:10:41;1.40;;;1.30;;
75550;SDS011;65071;53.082;18.218;2023-04-25T09:13:09;2.10;;;1.60;;
75550;SDS011;65071;53.082;18.218;2023-04-25T09:16:01;2.50;;;1.60;;
75550;SDS011;65071;53.082;18.218;2023-04-25T09:19:00;1.90;;;1.30;;
75550;SDS011;65071;53.082;18.218;2023-04-25T09:21:27;2.50;;;1.40;;
75550;SDS011;65071;53.082;18.218;2023-04-25T09:23:57;2.40;;;1.40;;
75550;SDS011;65071;53.082;18.218;2023-04-25T09:26:26;2.60;;;1.20;;
75550;SDS011;65071;53.082;18.218;2023-04-25T09:29:08;2.40;;;1.20;;
75550;SDS011;65071;53.082;18.218;2023-04-25T09:31:36;1.30;;;1.20;;
75550;SDS011;65071;53.082;18.218;2023-04-25T09:34:03;1.40;;;0.90;;
75550;SDS011;65071;53.082;18.218;2023-04-25T09:36:37;1.90;;;1.00;;
75550;SDS011;65071;53.082;18.218;2023-04-25T09:39:24;1.20;;;1.00;;
75550;SDS011;65071;53.082;18.218;2023-04-25T09:42:02;2.20;;;1.30;;
75550;SDS011;65071;53.082;18.218;2023-04-25T09:44:29;1.90;;;1.30;;
75550;SDS011;65071;53.082;18.218;2023-04-25T09:46:56;1.80;;;1.50;;
75550;SDS011;65071;53.082;18.218;2023-04-25T09:49:25;2.00;;;1.50;;
75550;SDS011;65071;53.082;18.218;2023-04-25T09:52:02;1.90;;;1.20;;
75550;SDS011;65071;53.082;18.218;2023-04-25T09:54:39;2.50;;;1.40;;
75550;SDS011;65071;53.082;18.218;2023-04-25T09:59:49;1.40;;;1.10;;
75550;SDS011;65071;53.082;18.218;2023-04-25T10:02:18;2.60;;;1.00;;
75550;SDS011;65071;53.082;18.218;2023-04-25T10:04:50;1.80;;;1.10;;
75550;SDS011;65071;53.082;18.218;2023-04-25T10:07:29;1.80;;;0.90;;
75550;SDS011;65071;53.082;18.218;2023-04-25T10:10:00;1.70;;;1.00;;
75550;SDS011;65071;53.082;18.218;2023-04-25T10:12:29;2.30;;;1.30;;
75550;SDS011;65071;53.082;18.218;2023-04-25T10:14:59;1.50;;;0.90;;
75550;SDS011;65071;53.082;18.218;2023-04-25T10:17:27;1.80;;;1.10;;
75550;SDS011;65071;53.082;18.218;2023-04-25T10:19:54;2.40;;;1.40;;
75550;SDS011;65071;53.082;18.218;2023-04-25T10:22:23;4.20;;;0.90;;
75550;SDS011;65071;53.082;18.218;2023-04-25T10:24:56;2.20;;;1.10;;
75550;SDS011;65071;53.082;18.218;2023-04-25T10:27:23;1.20;;;1.10;;
75550;SDS011;65071;53.082;18.218;2023-04-25T10:30:00;3.10;;;1.40;;
75550;SDS011;65071;53.082;18.218;2023-04-25T10:32:31;1.70;;;1.00;;
75550;SDS011;65071;53.082;18.218;2023-04-25T10:35:09;1.20;;;0.80;;
75550;SDS011;65071;53.082;18.218;2023-04-25T10:37:37;1.80;;;1.20;;
75550;SDS011;65071;53.082;18.218;2023-04-25T10:40:10;1.90;;;1.00;;
75550;SDS011;65071;53.082;18.218;2023-04-25T10:42:37;1.10;;;1.00;;
75550;SDS011;65071;53.082;18.218;2023-04-25T10:45:07;1.90;;;0.70;;
75550;SDS011;65071;53.082;18.218;2023-04-25T10:47:38;0.90;;;0.80;;
75550;SDS011;65071;53.082;18.218;2023-04-25T10:50:11;2.40;;;0.90;;
75550;SDS011;65071;53.082;18.218;2023-04-25T10:52:41;0.80;;;0.70;;
75550;SDS011;65071;53.082;18.218;2023-04-25T10:55:08;1.40;;;1.20;;
75550;SDS011;65071;53.082;18.218;2023-04-25T10:57:44;1.90;;;1.30;;
75550;SDS011;65071;53.082;18.218;2023-04-25T11:00:16;1.40;;;1.30;;
75550;SDS011;65071;53.082;18.218;2023-04-25T11:02:51;1.20;;;1.10;;
75550;SDS011;65071;53.082;18.218;2023-04-25T11:05:20;2.00;;;1.30;;
75550;SDS011;65071;53.082;18.218;2023-04-25T11:07:53;1.30;;;0.90;;
75550;SDS011;65071;53.082;18.218;2023-04-25T11:10:30;1.90;;;1.20;;
75550;SDS011;65071;53.082;18.218;2023-04-25T11:12:58;1.80;;;1.00;;
75550;SDS011;65071;53.082;18.218;2023-04-25T11:15:26;1.80;;;1.20;;
75550;SDS011;65071;53.082;18.218;2023-04-25T11:17:53;1.20;;;1.00;;
75550;SDS011;65071;53.082;18.218;2023-04-25T11:20:21;3.70;;;1.10;;
75550;SDS011;65071;53.082;18.218;2023-04-25T11:22:52;1.50;;;1.10;;
75550;SDS011;65071;53.082;18.218;2023-04-25T11:25:19;2.70;;;1.20;;
75550;SDS011;65071;53.082;18.218;2023-04-25T11:30:17;1.70;;;1.10;;
75550;SDS011;65071;53.082;18.218;2023-04-25T11:32:44;2.00;;;1.20;;
75550;SDS011;65071;53.082;18.218;2023-04-25T11:35:12;1.30;;;1.10;;
75550;SDS011;65071;53.082;18.218;2023-04-25T11:37:39;2.10;;;1.00;;
75550;SDS011;65071;53.082;18.218;2023-04-25T11:40:07;1.30;;;1.20;;
75550;SDS011;65071;53.082;18.218;2023-04-25T11:42:39;2.20;;;1.40;;
75550;SDS011;65071;53.082;18.218;2023-04-25T11:45:10;2.10;;;1.40;;
75550;SDS011;65071;53.082;18.218;2023-04-25T11:47:37;2.10;;;1.40;;
75550;SDS011;65071;53.082;18.218;2023-04-25T11:50:05;1.50;;;1.20;;
75550;SDS011;65071;53.082;18.218;2023-04-25T11:52:40;2.30;;;1.50;;
75550;SDS011;65071;53.082;18.218;2023-04-25T11:57:37;2.30;;;1.50;;
75550;SDS011;65071;53.082;18.218;2023-04-25T12:00:06;2.00;;;1.50;;
75550;SDS011;65071;53.082;18.218;2023-04-25T12:02:42;1.60;;;1.50;;
75550;SDS011;65071;53.082;18.218;2023-04-25T12:05:19;2.70;;;1.70;;
75550;SDS011;65071;53.082;18.218;2023-04-25T12:07:46;1.80;;;1.60;;
75550;SDS011;65071;53.082;18.218;2023-04-25T12:10:14;2.60;;;1.60;;
75550;SDS011;65071;53.082;18.218;2023-04-25T12:12:43;2.90;;;1.60;;
75550;SDS011;65071;53.082;18.218;2023-04-25T12:15:12;1.60;;;1.30;;
75550;SDS011;65071;53.082;18.218;2023-04-25T12:17:59;1.70;;;1.20;;
75550;SDS011;65071;53.082;18.218;2023-04-25T12:20:28;2.30;;;1.30;;
75550;SDS011;65071;53.082;18.218;2023-04-25T12:22:57;1.30;;;1.20;;
75550;SDS011;65071;53.082;18.218;2023-04-25T12:25:40;1.50;;;1.10;;
75550;SDS011;65071;53.082;18.218;2023-04-25T12:28:20;3.80;;;2.80;;
75550;SDS011;65071;53.082;18.218;2023-04-25T12:33:27;1.90;;;1.20;;
75550;SDS011;65071;53.082;18.218;2023-04-25T12:35:55;1.40;;;1.00;;
75550;SDS011;65071;53.082;18.218;2023-04-25T12:40:49;3.00;;;1.20;;
75550;SDS011;65071;53.082;18.218;2023-04-25T12:43:16;2.20;;;1.40;;
75550;SDS011;65071;53.082;18.218;2023-04-25T12:45:44;2.00;;;1.50;;
75550;SDS011;65071;53.082;18.218;2023-04-25T12:48:13;2.00;;;1.40;;
75550;SDS011;65071;53.082;18.218;2023-04-25T12:50:40;1.90;;;1.20;;
75550;SDS011;65071;53.082;18.218;2023-04-25T12:53:07;1.50;;;1.00;;
75550;SDS011;65071;53.082;18.218;2023-04-25T12:55:34;1.80;;;1.30;;
75550;SDS011;65071;53.082;18.218;2023-04-25T12:58:00;1.20;;;1.10;;
75550;SDS011;65071;53.082;18.218;2023-04-25T13:00:27;1.80;;;1.20;;
75550;SDS011;65071;53.082;18.218;2023-04-25T13:02:53;1.50;;;1.10;;
75550;SDS011;65071;53.082;18.218;2023-04-25T13:05:20;1.50;;;0.80;;
75550;SDS011;65071;53.082;18.218;2023-04-25T13:07:47;1.60;;;1.00;;
75550;SDS011;65071;53.082;18.218;2023-04-25T13:10:13;2.20;;;1.00;;
75550;SDS011;65071;53.082;18.218;2023-04-25T13:12:40;1.90;;;1.20;;
75550;SDS011;65071;53.082;18.218;2023-04-25T13:15:07;2.10;;;1.20;;
75550;SDS011;65071;53.082;18.218;2023-04-25T13:17:35;1.50;;;1.20;;
75550;SDS011;65071;53.082;18.218;2023-04-25T13:20:02;2.80;;;1.50;;
75550;SDS011;65071;53.082;18.218;2023-04-25T13:24:57;2.40;;;1.30;;
75550;SDS011;65071;53.082;18.218;2023-04-25T13:27:24;1.20;;;1.10;;
75550;SDS011;65071;53.082;18.218;2023-04-25T13:29:50;2.30;;;1.30;;
75550;SDS011;65071;53.082;18.218;2023-04-25T13:32:17;3.00;;;1.50;;
75550;SDS011;65071;53.082;18.218;2023-04-25T13:34:43;3.20;;;1.80;;
75550;SDS011;65071;53.082;18.218;2023-04-25T13:37:10;1.40;;;1.10;;
75550;SDS011;65071;53.082;18.218;2023-04-25T13:39:36;3.70;;;1.40;;
75550;SDS011;65071;53.082;18.218;2023-04-25T13:42:03;1.70;;;0.90;;
75550;SDS011;65071;53.082;18.218;2023-04-25T13:44:29;1.80;;;1.20;;
75550;SDS011;65071;53.082;18.218;2023-04-25T13:46:56;1.90;;;1.30;;
75550;SDS011;65071;53.082;18.218;2023-04-25T13:49:23;1.60;;;1.20;;
75550;SDS011;65071;53.082;18.218;2023-04-25T13:51:49;3.00;;;1.50;;
75550;SDS011;65071;53.082;18.218;2023-04-25T13:54:16;2.20;;;1.20;;
75550;SDS011;65071;53.082;18.218;2023-04-25T13:56:42;2.10;;;1.40;;
75550;SDS011;65071;53.082;18.218;2023-04-25T13:59:09;3.20;;;1.90;;
75550;SDS011;65071;53.082;18.218;2023-04-25T14:01:36;4.90;;;1.50;;
75550;SDS011;65071;53.082;18.218;2023-04-25T14:04:03;1.70;;;1.40;;
75550;SDS011;65071;53.082;18.218;2023-04-25T14:08:59;3.00;;;1.60;;
75550;SDS011;65071;53.082;18.218;2023-04-25T14:11:27;3.30;;;1.50;;
75550;SDS011;65071;53.082;18.218;2023-04-25T14:13:53;2.40;;;1.40;;
75550;SDS011;65071;53.082;18.218;2023-04-25T14:16:20;2.00;;;1.50;;
75550;SDS011;65071;53.082;18.218;2023-04-25T14:18:47;1.50;;;1.30;;
75550;SDS011;65071;53.082;18.218;2023-04-25T14:21:13;1.90;;;1.30;;
75550;SDS011;65071;53.082;18.218;2023-04-25T14:23:40;2.20;;;1.40;;
75550;SDS011;65071;53.082;18.218;2023-04-25T14:26:06;4.00;;;2.60;;
75550;SDS011;65071;53.082;18.218;2023-04-25T14:28:33;4.10;;;2.70;;
75550;SDS011;65071;53.082;18.218;2023-04-25T14:30:59;3.00;;;2.20;;
75550;SDS011;65071;53.082;18.218;2023-04-25T14:33:26;1.50;;;1.40;;
75550;SDS011;65071;53.082;18.218;2023-04-25T14:35:53;3.80;;;1.70;;
75550;SDS011;65071;53.082;18.218;2023-04-25T14:38:20;2.40;;;1.40;;
75550;SDS011;65071;53.082;18.218;2023-04-25T14:40:49;2.30;;;1.20;;
75550;SDS011;65071;53.082;18.218;2023-04-25T14:43:16;2.20;;;1.20;;
75550;SDS011;65071;53.082;18.218;2023-04-25T14:45:42;2.00;;;1.00;;
75550;SDS011;65071;53.082;18.218;2023-04-25T14:48:09;1.50;;;1.10;;
75550;SDS011;65071;53.082;18.218;2023-04-25T14:50:36;0.70;;;0.70;;
75550;SDS011;65071;53.082;18.218;2023-04-25T14:53:03;2.50;;;1.10;;
75550;SDS011;65071;53.082;18.218;2023-04-25T14:55:29;1.40;;;0.90;;
75550;SDS011;65071;53.082;18.218;2023-04-25T14:57:56;0.90;;;0.80;;
75550;SDS011;65071;53.082;18.218;2023-04-25T15:00:23;1.40;;;0.80;;
75550;SDS011;65071;53.082;18.218;2023-04-25T15:02:51;1.20;;;1.00;;
75550;SDS011;65071;53.082;18.218;2023-04-25T15:05:18;1.80;;;0.80;;
75550;SDS011;65071;53.082;18.218;2023-04-25T15:07:45;1.10;;;0.80;;
75550;SDS011;65071;53.082;18.218;2023-04-25T15:10:11;1.60;;;0.60;;
75550;SDS011;65071;53.082;18.218;2023-04-25T15:12:45;2.70;;;1.20;;
75550;SDS011;65071;53.082;18.218;2023-04-25T15:15:12;3.30;;;1.60;;